Time;durP1;ratioP1;P1;durP2;ratioP2;P2;SDS_P1;SDS_P2;PMS_P1;PMS_P2;Temp;Humidity;BMP_temperature;BMP_pressure;BME280_temperature;BME280_humidity;BME280_pressure;Samples;Min_cycle;Max_cycle;Signal;HPM_P1;HPM_P2
2022/04/23 00:02:09;;;;;;;26.23;7.57;;;6.40;72.30;;;;;;4973930;28;20093;-76
2022/04/23 00:04:37;;;;;;;25.83;7.38;;;6.40;72.80;;;;;;4972481;28;20130;-75
2022/04/23 00:07:05;;;;;;;17.33;7.38;;;6.30;73.40;;;;;;4973387;28;20043;-75
2022/04/23 00:09:33;;;;;;;17.90;6.50;;;6.30;73.80;;;;;;4974093;28;20145;-76
2022/04/23 00:12:01;;;;;;;25.60;7.55;;;6.30;74.10;;;;;;4973478;28;20066;-76
2022/04/23 00:14:30;;;;;;;18.10;6.40;;;6.30;74.30;;;;;;4972948;28;20469;-76
2022/04/23 00:17:00;;;;;;;18.05;6.30;;;6.20;74.70;;;;;;4974028;28;20050;-76
2022/04/23 00:19:27;;;;;;;13.10;6.07;;;6.20;74.80;;;;;;4956156;28;20086;-76
2022/04/23 00:21:55;;;;;;;13.50;5.68;;;6.10;74.50;;;;;;4973963;28;20053;-76
2022/04/23 00:24:22;;;;;;;16.33;5.25;;;6.10;74.60;;;;;;4972170;28;20074;-76
2022/04/23 00:26:51;;;;;;;14.15;5.38;;;6.10;74.80;;;;;;4972822;28;20051;-76
2022/04/23 00:29:18;;;;;;;17.73;6.47;;;6.10;74.70;;;;;;4972358;28;20483;-76
2022/04/23 00:31:47;;;;;;;14.85;6.38;;;6.00;75.50;;;;;;4971703;28;20069;-75
2022/04/23 00:34:14;;;;;;;14.95;6.07;;;6.10;76.70;;;;;;4973094;28;20078;-74
2022/04/23 00:36:42;;;;;;;20.25;6.65;;;6.00;77.90;;;;;;4973584;28;20058;-75
2022/04/23 00:39:09;;;;;;;17.83;6.00;;;6.00;77.80;;;;;;4973165;28;20051;-75
2022/04/23 00:41:46;;;;;;;19.48;7.80;;;5.90;77.50;;;;;;4972719;28;20047;-75
2022/04/23 00:44:15;;;;;;;18.00;6.00;;;5.90;78.50;;;;;;4973446;28;20062;-75
2022/04/23 00:46:43;;;;;;;22.13;7.82;;;5.90;78.30;;;;;;4973257;28;20050;-75
2022/04/23 00:49:13;;;;;;;18.17;6.80;;;5.80;78.30;;;;;;4971347;28;20078;-75
2022/04/23 00:51:41;;;;;;;20.98;8.18;;;5.80;79.40;;;;;;4973068;28;20419;-74
2022/04/23 00:54:10;;;;;;;19.58;7.68;;;5.70;81.10;;;;;;4955662;28;20146;-74
2022/04/23 00:56:39;;;;;;;22.95;8.77;;;5.70;81.90;;;;;;4972812;28;20455;-74
2022/04/23 00:59:09;;;;;;;29.13;9.15;;;5.60;83.10;;;;;;4965040;28;20599;-74
2022/04/23 01:01:40;;;;;;;25.60;7.80;;;5.60;84.80;;;;;;4962969;28;20105;-74
2022/04/23 01:04:07;;;;;;;27.02;8.35;;;5.50;86.80;;;;;;4972943;28;20042;-75
2022/04/23 01:06:37;;;;;;;27.77;8.80;;;5.40;88.20;;;;;;4972643;28;20054;-75
2022/04/23 01:09:07;;;;;;;27.08;7.85;;;5.40;90.60;;;;;;4970601;28;20043;-74
2022/04/23 01:11:36;;;;;;;24.45;8.30;;;5.30;92.70;;;;;;4972836;28;20078;-74
2022/04/23 01:14:05;;;;;;;22.10;7.50;;;5.30;94.70;;;;;;4972436;28;20062;-75
2022/04/23 01:16:33;;;;;;;17.70;7.38;;;5.30;96.00;;;;;;4970434;28;20639;-76
2022/04/23 01:19:00;;;;;;;14.90;6.32;;;5.30;96.10;;;;;;4972229;28;20059;-75
2022/04/23 01:21:30;;;;;;;25.92;6.18;;;5.40;96.90;;;;;;4972793;28;20050;-75
2022/04/23 01:23:58;;;;;;;19.98;5.32;;;5.40;97.50;;;;;;4972290;28;20050;-75
2022/04/23 01:26:28;;;;;;;12.30;4.72;;;5.30;96.60;;;;;;4971286;28;20065;-74
2022/04/23 01:28:57;;;;;;;10.35;4.65;;;5.40;97.10;;;;;;4972207;28;20059;-75
2022/04/23 01:31:25;;;;;;;6.30;3.85;;;5.40;96.60;;;;;;4972325;28;20094;-75
2022/04/23 01:33:53;;;;;;;8.95;3.83;;;5.40;96.60;;;;;;4972356;28;20090;-75
2022/04/23 01:36:21;;;;;;;7.93;3.60;;;5.40;96.60;;;;;;4971659;28;20487;-76
2022/04/23 01:38:50;;;;;;;7.80;3.53;;;5.30;98.30;;;;;;4972475;28;20411;-76
2022/04/23 01:41:17;;;;;;;8.48;3.60;;;5.30;98.60;;;;;;4972215;28;20097;-77
2022/04/23 01:43:44;;;;;;;8.55;4.47;;;5.30;99.00;;;;;;4970012;28;20046;-76
2022/04/23 01:46:12;;;;;;;6.82;4.78;;;5.30;98.00;;;;;;4983937;28;20059;-76
2022/04/23 01:48:40;;;;;;;7.97;4.88;;;5.30;96.10;;;;;;4952882;28;20051;-76
2022/04/23 01:51:07;;;;;;;7.05;5.05;;;5.40;96.10;;;;;;4953032;28;20086;-76
2022/04/23 01:53:35;;;;;;;9.43;5.22;;;5.40;97.60;;;;;;4960947;28;20054;-75
2022/04/23 01:56:03;;;;;;;11.32;5.28;;;5.30;96.50;;;;;;4971901;28;20519;-76
2022/04/23 01:58:31;;;;;;;10.63;5.82;;;5.30;95.20;;;;;;4970657;28;20181;-75
2022/04/23 02:01:00;;;;;;;10.63;5.38;;;5.20;95.30;;;;;;4972018;28;20094;-76
2022/04/23 02:03:28;;;;;;;12.52;5.90;;;5.20;96.60;;;;;;4970784;28;20149;-76
2022/04/23 02:05:55;;;;;;;8.52;4.38;;;5.20;99.20;;;;;;4972002;28;20093;-76
2022/04/23 02:08:23;;;;;;;10.20;4.82;;;5.20;98.20;;;;;;4971703;28;20101;-76
2022/04/23 02:10:52;;;;;;;9.73;4.18;;;5.10;98.30;;;;;;4969620;28;20419;-77
2022/04/23 02:13:21;;;;;;;5.05;4.18;;;5.10;98.00;;;;;;4971545;28;20117;-76
2022/04/23 02:15:48;;;;;;;12.57;3.38;;;5.10;98.30;;;;;;4972208;28;20539;-77
2022/04/23 02:18:16;;;;;;;6.05;3.30;;;5.10;98.50;;;;;;4972217;28;20116;-77
2022/04/23 02:20:44;;;;;;;4.18;2.47;;;5.10;99.60;;;;;;4971234;28;20047;-76
2022/04/23 02:23:12;;;;;;;4.78;2.50;;;5.10;99.40;;;;;;4971264;28;20050;-76
2022/04/23 02:25:39;;;;;;;5.05;2.20;;;5.20;99.90;;;;;;4971819;28;20050;-77
2022/04/23 02:28:07;;;;;;;8.30;2.60;;;5.10;99.90;;;;;;4971879;28;20051;-77
2022/04/23 02:30:36;;;;;;;5.35;2.70;;;5.10;99.90;;;;;;4969939;28;20510;-77
2022/04/23 02:33:03;;;;;;;7.07;2.50;;;5.10;99.90;;;;;;4970370;28;20058;-76
2022/04/23 02:35:31;;;;;;;5.20;3.03;;;5.10;99.90;;;;;;4972278;28;20149;-76
2022/04/23 02:38:01;;;;;;;6.68;3.15;;;5.10;99.90;;;;;;4970599;28;20154;-76
2022/04/23 02:40:29;;;;;;;8.93;3.55;;;5.10;99.90;;;;;;4971064;28;20771;-77
2022/04/23 02:42:57;;;;;;;9.15;2.75;;;5.10;99.90;;;;;;4969975;28;20050;-77
2022/04/23 02:45:25;;;;;;;5.68;2.83;;;5.10;99.90;;;;;;4970453;28;20057;-77
2022/04/23 02:47:56;;;;;;;8.90;3.28;;;5.10;99.90;;;;;;4970389;28;20503;-77
2022/04/23 02:50:27;;;;;;;12.50;3.88;;;5.00;99.90;;;;;;4971146;28;20142;-77
2022/04/23 02:52:56;;;;;;;6.70;3.03;;;5.00;99.90;;;;;;4951051;28;20066;-77
2022/04/23 02:55:25;;;;;;;7.80;3.42;;;5.00;99.90;;;;;;4970242;28;20055;-77
2022/04/23 02:57:52;;;;;;;8.95;3.15;;;5.00;99.90;;;;;;4984695;28;20124;-75
2022/04/23 03:00:20;;;;;;;8.02;3.78;;;5.00;99.90;;;;;;4971630;28;20059;-75
2022/04/23 03:02:48;;;;;;;10.30;5.45;;;5.00;99.90;;;;;;4971274;28;20051;-76
2022/04/23 03:05:17;;;;;;;13.65;5.93;;;4.90;99.90;;;;;;4969350;28;20078;-76
2022/04/23 03:07:45;;;;;;;9.48;5.55;;;4.80;99.90;;;;;;4971606;28;20057;-76
2022/04/23 03:10:15;;;;;;;10.98;5.13;;;4.80;99.90;;;;;;4971129;28;20049;-76
2022/04/23 03:12:43;;;;;;;8.10;3.92;;;4.80;99.90;;;;;;4973263;28;20051;-76
2022/04/23 03:15:15;;;;;;;9.73;3.47;;;4.80;99.90;;;;;;4972383;28;20046;-76
2022/04/23 03:17:43;;;;;;;5.70;3.40;;;4.80;99.90;;;;;;4975054;28;20106;-76
2022/04/23 03:20:13;;;;;;;7.45;2.95;;;4.80;99.90;;;;;;4974497;28;20089;-76
2022/04/23 03:22:43;;;;;;;8.43;3.17;;;4.80;99.90;;;;;;4986160;28;20055;-76
2022/04/23 03:25:12;;;;;;;4.22;2.97;;;4.80;99.90;;;;;;4970596;28;20047;-76
2022/04/23 03:27:39;;;;;;;4.72;2.92;;;4.80;99.90;;;;;;4974814;28;20051;-76
2022/04/23 03:30:09;;;;;;;6.85;3.97;;;4.70;99.90;;;;;;4974653;28;20058;-75
2022/04/23 03:32:37;;;;;;;13.10;2.90;;;4.70;99.90;;;;;;4973392;28;20046;-75
2022/04/23 03:35:06;;;;;;;6.47;3.30;;;4.70;99.90;;;;;;4974794;28;20630;-75
2022/04/23 03:37:33;;;;;;;12.48;2.67;;;4.70;99.90;;;;;;4973298;28;20142;-75
2022/04/23 03:40:06;;;;;;;5.45;2.78;;;4.80;99.90;;;;;;4974168;28;20408;-76
2022/04/23 03:42:33;;;;;;;5.55;2.63;;;4.80;99.90;;;;;;4955115;28;20043;-76
2022/04/23 03:45:00;;;;;;;9.18;2.80;;;4.80;99.90;;;;;;4973912;28;20389;-76
2022/04/23 03:47:28;;;;;;;3.20;2.67;;;4.90;99.90;;;;;;4973463;28;20042;-76
2022/04/23 03:49:55;;;;;;;3.25;2.45;;;5.00;99.90;;;;;;4974531;28;20369;-76
2022/04/23 03:52:22;;;;;;;5.32;3.10;;;5.00;99.90;;;;;;4973338;28;20427;-76
2022/04/23 03:54:51;;;;;;;8.02;2.67;;;5.10;99.90;;;;;;4974109;28;20504;-76
2022/04/23 03:57:20;;;;;;;7.55;2.80;;;5.20;99.90;;;;;;4956776;28;20124;-76
2022/04/23 03:59:47;;;;;;;10.20;3.15;;;5.20;99.90;;;;;;4972214;28;20049;-76
2022/04/23 04:02:15;;;;;;;8.57;2.85;;;5.30;99.90;;;;;;4973933;28;20057;-76
2022/04/23 04:04:42;;;;;;;8.68;2.65;;;5.30;99.90;;;;;;4974121;28;20150;-78
2022/04/23 04:07:10;;;;;;;8.48;2.63;;;5.40;99.90;;;;;;4973900;28;20089;-79
2022/04/23 04:09:37;;;;;;;3.38;2.80;;;5.40;99.90;;;;;;4971736;28;20070;-78
2022/04/23 04:12:08;;;;;;;4.70;3.13;;;5.50;99.90;;;;;;4976960;28;20043;-78
2022/04/23 04:14:43;;;;;;;5.35;2.58;;;5.50;99.90;;;;;;4972270;28;20059;-79
2022/04/23 04:17:15;;;;;;;8.05;3.42;;;5.60;99.90;;;;;;4972327;28;20523;-78
2022/04/23 04:19:43;;;;;;;6.13;2.78;;;5.70;99.90;;;;;;4973289;28;20050;-78
2022/04/23 04:22:10;;;;;;;6.65;3.38;;;5.70;99.90;;;;;;4973738;28;20046;-78
2022/04/23 04:24:38;;;;;;;5.20;3.40;;;5.70;99.90;;;;;;4972603;28;20567;-76
2022/04/23 04:27:06;;;;;;;6.13;3.20;;;5.80;99.90;;;;;;4968000;28;20050;-78
2022/04/23 04:29:33;;;;;;;9.98;3.00;;;5.90;99.90;;;;;;4964609;28;20129;-78
2022/04/23 04:32:02;;;;;;;4.10;2.90;;;5.90;99.90;;;;;;4972366;28;20075;-78
2022/04/23 04:34:31;;;;;;;6.10;3.03;;;6.00;99.90;;;;;;4971737;28;20089;-77
2022/04/23 04:37:06;;;;;;;5.00;2.63;;;6.00;99.90;;;;;;4972430;28;20046;-77
2022/04/23 04:39:34;;;;;;;7.05;2.70;;;6.00;99.90;;;;;;4971955;28;20093;-76
2022/04/23 04:42:02;;;;;;;5.50;2.63;;;6.10;99.90;;;;;;4963906;28;20083;-77
2022/04/23 04:44:30;;;;;;;4.65;2.95;;;6.00;99.90;;;;;;4970286;28;20050;-77
2022/04/23 04:47:10;;;;;;;5.05;2.67;;;6.20;99.90;;;;;;4960246;28;20053;-78
2022/04/23 04:49:40;;;;;;;7.45;3.10;;;6.30;99.90;;;;;;4972473;28;20042;-76
2022/04/23 04:52:13;;;;;;;6.45;2.53;;;6.30;99.90;;;;;;4972716;28;20055;-76
2022/04/23 04:54:41;;;;;;;9.18;2.53;;;6.40;99.90;;;;;;4971934;28;20058;-78
2022/04/23 04:57:09;;;;;;;5.78;3.05;;;6.50;99.90;;;;;;4987857;28;20164;-78
2022/04/23 04:59:37;;;;;;;5.80;2.47;;;6.60;99.90;;;;;;4972938;28;20117;-77
2022/04/23 05:02:05;;;;;;;9.57;2.80;;;6.60;99.90;;;;;;4971333;28;20130;-79
2022/04/23 05:04:34;;;;;;;7.10;2.80;;;6.60;99.90;;;;;;4951719;28;20527;-78
2022/04/23 05:07:01;;;;;;;5.38;2.08;;;6.60;99.90;;;;;;4961785;28;20046;-79
2022/04/23 05:09:29;;;;;;;9.25;3.08;;;6.70;99.90;;;;;;4983836;28;20051;-78
2022/04/23 05:11:57;;;;;;;5.55;2.58;;;6.80;99.90;;;;;;4986627;28;20076;-75
2022/04/23 05:14:24;;;;;;;6.15;2.60;;;6.80;99.90;;;;;;4971412;28;20051;-75
2022/04/23 05:16:52;;;;;;;8.13;2.97;;;6.80;99.90;;;;;;4972901;28;20046;-78
2022/04/23 05:19:19;;;;;;;6.30;2.45;;;6.90;99.90;;;;;;4969549;28;20038;-75
2022/04/23 05:21:48;;;;;;;10.27;2.80;;;7.00;99.90;;;;;;4970226;28;20042;-78
2022/04/23 05:24:15;;;;;;;4.53;2.40;;;7.00;99.90;;;;;;4971230;28;20043;-76
2022/04/23 05:26:43;;;;;;;5.35;3.03;;;7.10;99.90;;;;;;4970922;28;20047;-79
2022/04/23 05:29:16;;;;;;;9.68;2.63;;;7.20;99.90;;;;;;4953006;28;20051;-75
2022/04/23 05:31:43;;;;;;;5.30;2.90;;;7.50;99.90;;;;;;4966966;28;20061;-74
2022/04/23 05:34:11;;;;;;;9.23;3.17;;;8.10;99.90;;;;;;4969008;28;20062;-74
2022/04/23 05:36:38;;;;;;;7.13;3.03;;;8.60;99.90;;;;;;4970862;28;20062;-74
2022/04/23 05:39:07;;;;;;;3.85;2.33;;;9.30;99.90;;;;;;4969888;28;20051;-74
2022/04/23 05:41:34;;;;;;;4.30;2.92;;;9.80;99.90;;;;;;4971660;28;20054;-74
2022/04/23 05:44:02;;;;;;;9.35;3.20;;;10.30;99.90;;;;;;4972139;28;20404;-74
2022/04/23 05:46:29;;;;;;;9.02;2.90;;;10.70;99.90;;;;;;4987092;28;20105;-74
2022/04/23 05:48:57;;;;;;;27.15;3.95;;;11.00;99.90;;;;;;4966110;28;20542;-74
2022/04/23 05:51:24;;;;;;;19.90;3.28;;;11.30;99.90;;;;;;4953251;28;20083;-75
2022/04/23 05:53:52;;;;;;;4.97;2.42;;;11.60;99.90;;;;;;4952955;28;20141;-75
2022/04/23 05:56:21;;;;;;;4.22;2.90;;;11.80;99.90;;;;;;4952624;28;20106;-74
2022/04/23 05:58:48;;;;;;;7.03;2.58;;;12.10;99.90;;;;;;4967984;28;20074;-75
2022/04/23 06:01:15;;;;;;;9.27;2.85;;;12.40;98.20;;;;;;4970919;28;20051;-75
2022/04/23 06:03:43;;;;;;;14.23;4.40;;;12.60;95.50;;;;;;4972044;28;20058;-75
2022/04/23 06:06:14;;;;;;;9.35;2.63;;;12.80;94.20;;;;;;4971890;28;20050;-75
2022/04/23 06:08:42;;;;;;;14.32;2.28;;;13.10;93.20;;;;;;4969224;28;20468;-75
2022/04/23 06:11:10;;;;;;;5.32;2.70;;;13.40;89.20;;;;;;4971721;28;20066;-75
2022/04/23 06:13:39;;;;;;;7.78;2.53;;;13.60;86.50;;;;;;4971888;28;20532;-76
2022/04/23 06:16:06;;;;;;;5.72;1.98;;;13.80;84.70;;;;;;4972021;28;20126;-78
2022/04/23 06:18:34;;;;;;;27.55;3.58;;;14.00;81.70;;;;;;4971993;28;20145;-78
2022/04/23 06:21:02;;;;;;;9.55;2.65;;;14.10;80.70;;;;;;4972317;28;20349;-79
2022/04/23 06:23:29;;;;;;;11.90;2.65;;;14.20;80.10;;;;;;4971994;28;20059;-78
2022/04/23 06:25:57;;;;;;;7.00;2.88;;;14.40;77.70;;;;;;4972153;28;20058;-77
2022/04/23 06:28:24;;;;;;;4.38;2.10;;;14.60;76.40;;;;;;4970828;28;20050;-77
2022/04/23 06:30:53;;;;;;;6.57;2.10;;;14.60;73.70;;;;;;4987247;28;20039;-78
2022/04/23 06:33:21;;;;;;;10.77;2.97;;;14.50;73.20;;;;;;4986821;28;20061;-78
2022/04/23 06:35:48;;;;;;;8.15;2.03;;;14.60;73.20;;;;;;4971832;28;20054;-78
2022/04/23 06:38:16;;;;;;;9.55;3.03;;;14.70;73.30;;;;;;4970907;28;20062;-77
2022/04/23 06:40:43;;;;;;;4.65;1.77;;;15.00;72.60;;;;;;4971724;28;20101;-77
2022/04/23 06:43:11;;;;;;;10.70;2.95;;;15.20;70.50;;;;;;4971459;28;20408;-77
2022/04/23 06:45:45;;;;;;;6.15;2.60;;;15.60;68.80;;;;;;4967379;28;20118;-77
2022/04/23 06:48:14;;;;;;;11.77;2.30;;;15.90;66.90;;;;;;4956278;28;20508;-76
2022/04/23 06:50:41;;;;;;;9.25;2.10;;;16.20;64.70;;;;;;4975653;28;20503;-79
2022/04/23 06:53:09;;;;;;;3.00;1.48;;;16.30;64.20;;;;;;4975463;28;20059;-79
2022/04/23 06:55:36;;;;;;;8.23;2.17;;;16.60;62.80;;;;;;4975162;28;20086;-78
2022/04/23 06:58:04;;;;;;;8.98;2.13;;;17.10;61.60;;;;;;4974188;28;20443;-77
2022/04/23 07:00:37;;;;;;;4.45;1.58;;;17.40;59.80;;;;;;4973704;28;20074;-78
2022/04/23 07:03:06;;;;;;;1.92;1.70;;;17.60;58.70;;;;;;4972930;28;20133;-79
2022/04/23 07:05:35;;;;;;;5.45;1.80;;;17.70;58.00;;;;;;4974860;28;20074;-79
2022/04/23 07:08:04;;;;;;;8.95;2.30;;;17.70;58.70;;;;;;4974986;28;20058;-78
2022/04/23 07:10:33;;;;;;;1.42;1.33;;;17.80;58.00;;;;;;4975233;28;20050;-77
2022/04/23 07:13:01;;;;;;;4.38;2.00;;;17.90;57.40;;;;;;4975542;28;20087;-78
2022/04/23 07:15:30;;;;;;;2.95;1.60;;;18.10;56.70;;;;;;4974192;28;20055;-79
2022/04/23 07:17:58;;;;;;;4.90;1.58;;;18.20;56.10;;;;;;4973955;28;20110;-79
2022/04/23 07:20:25;;;;;;;6.82;1.40;;;18.30;56.40;;;;;;4974273;28;20058;-81
2022/04/23 07:25:40;;;;;;;5.05;1.60;;;18.70;55.30;;;;;;4972907;28;20047;-80
2022/04/23 07:28:08;;;;;;;4.47;1.83;;;18.80;55.00;;;;;;4974300;28;20054;-77
2022/04/23 07:30:36;;;;;;;11.88;1.40;;;19.10;54.70;;;;;;4957646;28;20055;-78
2022/04/23 07:33:05;;;;;;;5.50;1.20;;;19.30;53.10;;;;;;4974976;28;20058;-80
2022/04/23 07:38:21;;;;;;;17.55;1.65;;;19.20;52.60;;;;;;4971055;28;20400;-78
2022/04/23 07:40:49;;;;;;;15.85;2.00;;;19.40;52.60;;;;;;4975067;28;20054;-79
2022/04/23 07:43:17;;;;;;;8.93;1.80;;;19.50;52.30;;;;;;4976587;28;20039;-80
2022/04/23 07:45:47;;;;;;;3.08;1.10;;;19.60;52.60;;;;;;4988702;28;20133;-78
2022/04/23 07:48:16;;;;;;;5.32;1.65;;;20.00;51.00;;;;;;4973683;28;20047;-78
2022/04/23 07:50:43;;;;;;;5.55;2.60;;;19.80;50.80;;;;;;4971005;28;20447;-79
2022/04/23 07:53:12;;;;;;;6.22;1.63;;;19.80;51.00;;;;;;4974464;28;20051;-80
2022/04/23 07:55:41;;;;;;;8.27;1.88;;;19.80;50.50;;;;;;4974463;28;20105;-79
2022/04/23 07:58:10;;;;;;;5.88;1.75;;;19.80;51.30;;;;;;4972185;28;20093;-80
2022/04/23 08:00:40;;;;;;;4.20;1.48;;;20.20;51.00;;;;;;4971201;28;20058;-80
2022/04/23 08:03:08;;;;;;;5.50;1.42;;;20.50;49.60;;;;;;4973068;28;20176;-81
2022/04/23 08:05:36;;;;;;;4.05;1.63;;;20.60;49.80;;;;;;4974267;28;20069;-83
2022/04/23 08:08:04;;;;;;;4.03;1.58;;;20.90;50.20;;;;;;4974227;28;20078;-79
2022/04/23 08:10:32;;;;;;;9.75;1.30;;;21.40;49.60;;;;;;4973282;28;20069;-83
2022/04/23 08:13:01;;;;;;;5.50;1.60;;;21.60;48.70;;;;;;4974194;28;20058;-81
2022/04/23 08:15:28;;;;;;;8.32;1.70;;;21.70;48.00;;;;;;4974882;28;20054;-83
2022/04/23 08:17:56;;;;;;;3.28;1.48;;;21.60;48.10;;;;;;4972817;28;20055;-81
2022/04/23 08:20:24;;;;;;;9.82;1.52;;;21.50;48.60;;;;;;4974607;28;20196;-81
2022/04/23 08:22:51;;;;;;;5.90;2.20;;;21.60;48.30;;;;;;4974173;28;20070;-84
2022/04/23 08:25:18;;;;;;;3.85;2.05;;;21.60;47.90;;;;;;4972943;28;20054;-79
2022/04/23 08:27:50;;;;;;;4.15;2.22;;;21.70;47.70;;;;;;4973628;28;20515;-79
2022/04/23 08:30:34;;;;;;;8.23;1.95;;;21.20;47.90;;;;;;4973515;28;20051;-79
2022/04/23 08:33:01;;;;;;;16.95;2.08;;;21.00;48.20;;;;;;4973578;28;20070;-77
2022/04/23 08:35:29;;;;;;;14.55;2.13;;;20.90;47.70;;;;;;4972962;28;20527;-79
2022/04/23 08:37:56;;;;;;;8.60;1.52;;;20.90;48.50;;;;;;4973201;28;20062;-77
2022/04/23 08:40:24;;;;;;;6.13;2.00;;;21.10;48.20;;;;;;4972515;28;20423;-79
2022/04/23 08:42:52;;;;;;;9.20;1.50;;;21.30;47.50;;;;;;4969830;28;20051;-77
2022/04/23 08:45:21;;;;;;;4.07;1.38;;;21.30;48.00;;;;;;4950621;28;20451;-78
2022/04/23 08:47:48;;;;;;;3.55;1.55;;;21.30;47.20;;;;;;4952608;28;20070;-77
2022/04/23 08:50:22;;;;;;;10.20;2.50;;;21.30;47.70;;;;;;4952252;29;20460;-77
2022/04/23 08:52:54;;;;;;;7.07;1.88;;;21.40;47.00;;;;;;4969037;28;20472;-80
2022/04/23 08:55:22;;;;;;;8.73;1.75;;;21.00;47.80;;;;;;4971797;28;20055;-76
2022/04/23 08:57:49;;;;;;;8.00;1.52;;;20.60;47.80;;;;;;4969578;28;20043;-77
2022/04/23 09:00:18;;;;;;;4.38;1.70;;;20.50;48.50;;;;;;4972878;28;20527;-77
2022/04/23 09:02:47;;;;;;;6.90;1.45;;;20.70;48.30;;;;;;4971655;28;20783;-77
2022/04/23 09:05:15;;;;;;;3.28;1.40;;;20.60;48.10;;;;;;4971598;28;20082;-77
2022/04/23 09:07:53;;;;;;;10.50;1.80;;;20.50;48.70;;;;;;4972636;28;20514;-78
2022/04/23 09:10:21;;;;;;;4.85;1.50;;;20.70;49.10;;;;;;4972645;28;20094;-77
2022/04/23 09:12:55;;;;;;;7.85;1.70;;;21.00;48.40;;;;;;4972565;28;20050;-77
2022/04/23 09:24:11;;;;;;;9.38;1.75;;;20.70;48.00;;;;;;4971234;28;20050;-77
2022/04/23 09:26:41;;;;;;;6.32;1.40;;;20.70;48.30;;;;;;4971259;28;20105;-77
2022/04/23 09:29:18;;;;;;;4.70;1.50;;;20.60;47.70;;;;;;4972375;28;20071;-77
2022/04/23 09:31:46;;;;;;;4.85;1.83;;;20.40;48.50;;;;;;4954714;28;20042;-77
2022/04/23 09:34:20;;;;;;;17.55;2.42;;;20.50;48.10;;;;;;4971159;28;20046;-78
2022/04/23 09:36:50;;;;;;;6.35;1.60;;;20.50;48.80;;;;;;4986935;28;20092;-77
2022/04/23 09:39:31;;;;;;;5.65;1.52;;;20.60;48.10;;;;;;4973481;28;20241;-77
2022/04/23 09:42:13;;;;;;;6.82;1.60;;;20.60;48.20;;;;;;4966639;28;20047;-77
2022/04/23 09:44:42;;;;;;;7.78;1.65;;;20.60;48.20;;;;;;4971630;28;20077;-78
2022/04/23 09:47:09;;;;;;;8.82;1.67;;;20.50;47.80;;;;;;4970883;28;20081;-78
2022/04/23 09:49:40;;;;;;;8.95;1.50;;;20.40;48.00;;;;;;4972909;28;20051;-78
2022/04/23 09:52:11;;;;;;;5.20;1.30;;;20.70;48.40;;;;;;4980586;28;20573;-78
2022/04/23 09:54:39;;;;;;;4.60;1.70;;;21.00;48.20;;;;;;4992078;28;20374;-78
2022/04/23 09:57:10;;;;;;;10.32;1.83;;;21.60;47.10;;;;;;4980141;28;20058;-78
2022/04/23 09:59:38;;;;;;;7.97;1.25;;;22.10;46.30;;;;;;4972649;28;20066;-77
2022/04/23 10:02:10;;;;;;;3.28;1.50;;;22.90;45.00;;;;;;4971997;28;20415;-77
2022/04/23 10:04:39;;;;;;;9.70;1.67;;;23.20;44.60;;;;;;4972332;28;20149;-77
2022/04/23 10:07:08;;;;;;;7.15;1.88;;;23.50;44.30;;;;;;4971975;28;20051;-77
2022/04/23 10:09:40;;;;;;;8.18;1.70;;;23.80;44.30;;;;;;4971250;28;20054;-77
2022/04/23 10:12:12;;;;;;;8.73;1.42;;;24.30;43.20;;;;;;4971766;28;20059;-76
2022/04/23 10:14:43;;;;;;;4.05;1.63;;;24.40;42.60;;;;;;4972304;28;20058;-76
2022/04/23 10:17:14;;;;;;;7.20;1.23;;;24.30;42.20;;;;;;4970600;28;20113;-75
2022/04/23 10:19:44;;;;;;;5.75;2.10;;;24.30;42.50;;;;;;4971488;28;20058;-76
2022/04/23 10:22:21;;;;;;;3.85;1.23;;;24.40;42.40;;;;;;4974459;28;20673;-77
2022/04/23 10:25:04;;;;;;;7.47;1.60;;;24.60;41.90;;;;;;4975649;28;20051;-77
2022/04/23 10:27:40;;;;;;;10.43;1.77;;;24.90;41.50;;;;;;4975753;28;20105;-78
2022/04/23 10:30:12;;;;;;;3.97;1.50;;;24.70;41.80;;;;;;4975935;28;20118;-76
2022/04/23 10:32:41;;;;;;;5.67;1.80;;;24.60;41.40;;;;;;4974757;28;20062;-75
2022/04/23 10:35:35;;;;;;;11.40;1.75;;;24.70;41.40;;;;;;4974059;28;20294;-76
2022/04/23 10:38:21;;;;;;;7.38;1.40;;;24.70;41.10;;;;;;4975704;28;20153;-77
2022/04/23 10:40:55;;;;;;;6.32;1.70;;;25.10;41.10;;;;;;4976030;28;20082;-76
2022/04/23 10:43:22;;;;;;;6.63;2.30;;;25.50;41.00;;;;;;4976007;28;20133;-77
2022/04/23 10:45:50;;;;;;;6.13;1.67;;;25.50;40.40;;;;;;4974456;28;20057;-76
2022/04/23 10:48:28;;;;;;;4.97;2.03;;;25.80;40.00;;;;;;4975507;28;20047;-76
2022/04/23 10:51:06;;;;;;;6.00;1.90;;;25.40;40.10;;;;;;4975568;28;20130;-76
2022/04/23 10:53:55;;;;;;;6.32;1.75;;;25.10;40.70;;;;;;4975380;28;20055;-76
2022/04/23 10:56:23;;;;;;;4.45;1.58;;;24.60;40.50;;;;;;4975600;28;20067;-76
2022/04/23 10:58:52;;;;;;;4.47;1.63;;;24.20;41.10;;;;;;4990481;28;20125;-76
2022/04/23 11:01:29;;;;;;;6.38;1.80;;;23.90;41.20;;;;;;4975641;28;20109;-77
2022/04/23 11:04:10;;;;;;;1.98;1.77;;;23.80;42.20;;;;;;4974083;28;20043;-76
2022/04/23 11:12:36;;;;;;;12.73;1.77;;;24.40;41.10;;;;;;4974768;28;20051;-76
2022/04/23 11:15:15;;;;;;;10.13;1.60;;;24.60;40.60;;;;;;4973352;28;20050;-76
2022/04/23 11:17:53;;;;;;;6.28;2.00;;;24.90;40.60;;;;;;4957342;28;20082;-77
2022/04/23 11:20:38;;;;;;;7.68;1.90;;;25.30;41.20;;;;;;4981701;28;20050;-77
2022/04/23 11:23:08;;;;;;;6.85;1.70;;;25.90;39.80;;;;;;5000614;28;20154;-76
2022/04/23 11:25:36;;;;;;;7.30;1.65;;;26.30;38.90;;;;;;5008317;28;20101;-75
2022/04/23 11:28:16;;;;;;;11.48;1.92;;;26.30;38.50;;;;;;4993762;28;20479;-76
2022/04/23 11:30:43;;;;;;;7.90;1.98;;;26.40;38.20;;;;;;4962298;28;20046;-78
2022/04/23 11:33:13;;;;;;;6.82;1.92;;;26.30;38.50;;;;;;4981887;28;20046;-77
2022/04/23 11:35:41;;;;;;;12.68;1.88;;;26.30;38.40;;;;;;4972584;28;20050;-77
2022/04/23 11:38:22;;;;;;;5.72;1.98;;;26.00;38.40;;;;;;4954822;28;20059;-78
2022/04/23 11:40:49;;;;;;;10.10;1.85;;;26.10;38.40;;;;;;4955571;28;20082;-79
2022/04/23 11:43:34;;;;;;;5.57;1.70;;;26.10;37.90;;;;;;4954981;28;20047;-79
2022/04/23 11:46:06;;;;;;;8.07;1.83;;;25.90;38.00;;;;;;4954920;29;20051;-79
2022/04/23 11:48:44;;;;;;;8.07;1.40;;;25.70;38.30;;;;;;4957299;28;20051;-77
2022/04/23 11:51:14;;;;;;;8.88;1.88;;;25.90;38.50;;;;;;4955121;28;20385;-79
2022/04/23 11:53:55;;;;;;;11.93;2.17;;;26.20;38.10;;;;;;4960455;28;20415;-78
2022/04/23 11:56:25;;;;;;;6.55;1.58;;;26.50;38.40;;;;;;4973833;28;20051;-79
2022/04/23 11:58:56;;;;;;;5.72;1.38;;;27.10;37.60;;;;;;4973762;28;20073;-84
2022/04/23 12:01:24;;;;;;;2.95;1.77;;;27.20;37.20;;;;;;4973990;28;20393;-83
2022/04/23 12:03:53;;;;;;;7.75;1.88;;;27.30;37.00;;;;;;4972186;28;20064;-82
2022/04/23 12:06:21;;;;;;;9.90;2.00;;;27.10;36.80;;;;;;4970719;28;20659;-82
2022/04/23 12:08:48;;;;;;;8.15;2.15;;;26.60;37.40;;;;;;4972173;28;20070;-79
2022/04/23 12:11:26;;;;;;;2.92;1.80;;;26.10;37.70;;;;;;4975403;28;20097;-78
2022/04/23 12:13:54;;;;;;;2.30;1.55;;;25.90;38.20;;;;;;4973718;28;20058;-78
2022/04/23 12:16:32;;;;;;;5.55;2.00;;;26.20;38.00;;;;;;4974244;28;20455;-79
2022/04/23 12:19:01;;;;;;;2.42;1.38;;;26.50;37.50;;;;;;4983346;28;20105;-80
2022/04/23 12:21:29;;;;;;;5.32;1.80;;;26.20;37.70;;;;;;4984573;28;20049;-78
2022/04/23 12:23:56;;;;;;;5.22;1.80;;;25.80;38.40;;;;;;4975630;28;20054;-78
2022/04/23 12:26:33;;;;;;;5.63;1.65;;;26.00;38.10;;;;;;4965541;28;20059;-82
2022/04/23 12:43:25;;;;;;;4.85;1.58;;;28.00;35.80;;;;;;4973325;28;20054;-84
2022/04/23 12:46:08;;;;;;;5.68;1.80;;;27.90;35.80;;;;;;4988293;28;20062;-83
2022/04/23 12:48:58;;;;;;;3.60;1.80;;;27.80;36.40;;;;;;4985354;28;20061;-86
2022/04/23 12:51:26;;;;;;;4.13;1.65;;;27.80;35.50;;;;;;5001150;28;20050;-82
2022/04/23 12:53:54;;;;;;;5.65;1.80;;;27.50;36.10;;;;;;4990936;28;20042;-82
2022/04/23 12:56:34;;;;;;;5.50;2.42;;;27.40;36.30;;;;;;4982196;28;20065;-82
2022/04/23 12:59:05;;;;;;;4.80;1.77;;;27.60;36.00;;;;;;4990827;28;20053;-82
2022/04/23 13:01:33;;;;;;;4.85;1.55;;;27.70;36.00;;;;;;4957469;28;20049;-82
2022/04/23 13:04:02;;;;;;;9.57;1.73;;;27.80;36.00;;;;;;4991946;28;20046;-79
2022/04/23 13:09:16;;;;;;;3.53;1.65;;;27.60;35.90;;;;;;5006629;28;20418;-80
2022/04/23 13:11:44;;;;;;;4.50;1.67;;;27.90;35.80;;;;;;4992176;28;20149;-79
2022/04/23 13:14:14;;;;;;;4.35;1.80;;;28.00;35.70;;;;;;4991897;28;20097;-79
2022/04/23 13:16:44;;;;;;;7.32;2.25;;;28.10;35.50;;;;;;4976192;28;20142;-79
2022/04/23 13:19:11;;;;;;;6.40;2.03;;;27.60;35.60;;;;;;4978920;28;20050;-81
2022/04/23 13:21:39;;;;;;;2.55;1.65;;;27.30;36.60;;;;;;4954959;28;20078;-77
2022/04/23 13:24:07;;;;;;;5.63;2.00;;;27.40;36.20;;;;;;4974081;28;20113;-77
2022/04/23 13:26:34;;;;;;;9.52;2.10;;;27.80;36.10;;;;;;4963487;28;20051;-78
2022/04/23 13:29:02;;;;;;;8.70;1.95;;;28.20;35.20;;;;;;4969345;28;20055;-77
2022/04/23 13:31:31;;;;;;;3.70;1.85;;;28.20;35.20;;;;;;4971322;28;20160;-78
2022/04/23 13:33:58;;;;;;;12.27;2.20;;;28.30;35.30;;;;;;4968867;28;20070;-78
2022/04/23 13:36:26;;;;;;;18.15;2.85;;;28.20;35.10;;;;;;4970976;28;20058;-82
2022/04/23 13:38:53;;;;;;;4.72;1.63;;;27.80;35.60;;;;;;4955165;28;20476;-78